sensor_id;sensor_type;location;lat;lon;timestamp;P1;durP1;ratioP1;P2;durP2;ratioP2
17927;SDS011;9089;58.396;15.544;2022-10-28T00:01:23;11.65;;;2.75;;
17927;SDS011;9089;58.396;15.544;2022-10-28T00:03:50;10.82;;;3.75;;
17927;SDS011;9089;58.396;15.544;2022-10-28T00:06:18;9.65;;;3.33;;
17927;SDS011;9089;58.396;15.544;2022-10-28T00:08:44;7.47;;;3.10;;
17927;SDS011;9089;58.396;15.544;2022-10-28T00:11:12;10.50;;;3.13;;
17927;SDS011;9089;58.396;15.544;2022-10-28T00:13:38;12.00;;;3.75;;
17927;SDS011;9089;58.396;15.544;2022-10-28T00:16:04;11.68;;;3.10;;
17927;SDS011;9089;58.396;15.544;2022-10-28T00:18:29;12.48;;;3.33;;
17927;SDS011;9089;58.396;15.544;2022-10-28T00:20:58;11.15;;;3.95;;
17927;SDS011;9089;58.396;15.544;2022-10-28T00:23:24;9.00;;;2.83;;
17927;SDS011;9089;58.396;15.544;2022-10-28T00:25:50;13.13;;;3.47;;
17927;SDS011;9089;58.396;15.544;2022-10-28T00:28:15;8.70;;;2.97;;
17927;SDS011;9089;58.396;15.544;2022-10-28T00:30:41;11.48;;;3.22;;
17927;SDS011;9089;58.396;15.544;2022-10-28T00:33:06;9.43;;;3.28;;
17927;SDS011;9089;58.396;15.544;2022-10-28T00:35:32;14.00;;;3.25;;
17927;SDS011;9089;58.396;15.544;2022-10-28T00:37:58;15.43;;;3.70;;
17927;SDS011;9089;58.396;15.544;2022-10-28T00:40:24;10.45;;;3.95;;
17927;SDS011;9089;58.396;15.544;2022-10-28T00:42:50;7.68;;;3.03;;
17927;SDS011;9089;58.396;15.544;2022-10-28T00:45:15;13.35;;;3.33;;
17927;SDS011;9089;58.396;15.544;2022-10-28T00:47:42;10.00;;;3.40;;
17927;SDS011;9089;58.396;15.544;2022-10-28T00:50:16;9.75;;;3.30;;
17927;SDS011;9089;58.396;15.544;2022-10-28T00:52:44;12.63;;;3.53;;
17927;SDS011;9089;58.396;15.544;2022-10-28T00:55:11;11.30;;;3.45;;
17927;SDS011;9089;58.396;15.544;2022-10-28T00:57:38;10.65;;;3.42;;
17927;SDS011;9089;58.396;15.544;2022-10-28T01:00:06;14.93;;;4.00;;
17927;SDS011;9089;58.396;15.544;2022-10-28T01:02:32;10.73;;;3.45;;
17927;SDS011;9089;58.396;15.544;2022-10-28T01:04:58;9.45;;;3.25;;
17927;SDS011;9089;58.396;15.544;2022-10-28T01:07:23;11.88;;;3.58;;
17927;SDS011;9089;58.396;15.544;2022-10-28T01:09:49;14.45;;;3.55;;
17927;SDS011;9089;58.396;15.544;2022-10-28T01:12:16;12.85;;;3.40;;
17927;SDS011;9089;58.396;15.544;2022-10-28T01:14:50;12.23;;;3.65;;
17927;SDS011;9089;58.396;15.544;2022-10-28T01:17:22;9.75;;;3.22;;
17927;SDS011;9089;58.396;15.544;2022-10-28T01:22:31;10.65;;;3.38;;
17927;SDS011;9089;58.396;15.544;2022-10-28T01:25:16;10.50;;;3.60;;
17927;SDS011;9089;58.396;15.544;2022-10-28T01:27:50;8.90;;;3.20;;
17927;SDS011;9089;58.396;15.544;2022-10-28T01:30:21;11.73;;;3.63;;
17927;SDS011;9089;58.396;15.544;2022-10-28T01:32:50;14.07;;;3.90;;
17927;SDS011;9089;58.396;15.544;2022-10-28T01:35:20;11.73;;;3.65;;
17927;SDS011;9089;58.396;15.544;2022-10-28T01:37:47;14.80;;;3.53;;
17927;SDS011;9089;58.396;15.544;2022-10-28T01:40:16;14.52;;;3.80;;
17927;SDS011;9089;58.396;15.544;2022-10-28T01:42:43;10.77;;;4.15;;
17927;SDS011;9089;58.396;15.544;2022-10-28T01:45:12;14.10;;;4.38;;
17927;SDS011;9089;58.396;15.544;2022-10-28T01:47:39;9.48;;;3.40;;
17927;SDS011;9089;58.396;15.544;2022-10-28T01:50:08;13.45;;;3.88;;
17927;SDS011;9089;58.396;15.544;2022-10-28T01:52:35;9.10;;;4.05;;
17927;SDS011;9089;58.396;15.544;2022-10-28T01:55:04;8.00;;;3.50;;
17927;SDS011;9089;58.396;15.544;2022-10-28T01:57:30;10.43;;;3.90;;
17927;SDS011;9089;58.396;15.544;2022-10-28T01:59:57;10.68;;;3.78;;
17927;SDS011;9089;58.396;15.544;2022-10-28T02:02:23;11.75;;;3.92;;
17927;SDS011;9089;58.396;15.544;2022-10-28T02:04:48;18.25;;;4.57;;
17927;SDS011;9089;58.396;15.544;2022-10-28T02:07:15;14.57;;;4.07;;
17927;SDS011;9089;58.396;15.544;2022-10-28T02:09:45;8.77;;;3.25;;
17927;SDS011;9089;58.396;15.544;2022-10-28T02:12:23;10.70;;;4.07;;
17927;SDS011;9089;58.396;15.544;2022-10-28T02:14:54;12.30;;;3.90;;
17927;SDS011;9089;58.396;15.544;2022-10-28T02:17:24;12.05;;;3.72;;
17927;SDS011;9089;58.396;15.544;2022-10-28T02:19:53;12.70;;;4.20;;
17927;SDS011;9089;58.396;15.544;2022-10-28T02:22:25;10.85;;;4.32;;
17927;SDS011;9089;58.396;15.544;2022-10-28T02:24:59;10.85;;;3.53;;
17927;SDS011;9089;58.396;15.544;2022-10-28T02:27:29;9.68;;;3.45;;
17927;SDS011;9089;58.396;15.544;2022-10-28T02:29:58;12.23;;;4.55;;
17927;SDS011;9089;58.396;15.544;2022-10-28T02:32:26;7.30;;;3.70;;
17927;SDS011;9089;58.396;15.544;2022-10-28T02:34:55;11.88;;;3.92;;
17927;SDS011;9089;58.396;15.544;2022-10-28T02:37:25;15.10;;;4.32;;
17927;SDS011;9089;58.396;15.544;2022-10-28T02:39:52;9.75;;;3.90;;
17927;SDS011;9089;58.396;15.544;2022-10-28T02:42:20;9.38;;;3.90;;
17927;SDS011;9089;58.396;15.544;2022-10-28T02:44:47;10.00;;;3.78;;
17927;SDS011;9089;58.396;15.544;2022-10-28T02:47:14;7.97;;;3.63;;
17927;SDS011;9089;58.396;15.544;2022-10-28T02:49:41;7.90;;;3.50;;
17927;SDS011;9089;58.396;15.544;2022-10-28T02:52:07;10.63;;;3.63;;
17927;SDS011;9089;58.396;15.544;2022-10-28T02:54:36;12.82;;;3.88;;
17927;SDS011;9089;58.396;15.544;2022-10-28T02:57:04;7.40;;;3.65;;
17927;SDS011;9089;58.396;15.544;2022-10-28T02:59:30;12.20;;;3.95;;
17927;SDS011;9089;58.396;15.544;2022-10-28T03:01:56;8.70;;;3.75;;
17927;SDS011;9089;58.396;15.544;2022-10-28T03:04:21;12.85;;;4.03;;
17927;SDS011;9089;58.396;15.544;2022-10-28T03:06:47;9.43;;;4.07;;
17927;SDS011;9089;58.396;15.544;2022-10-28T03:09:12;8.73;;;3.63;;
17927;SDS011;9089;58.396;15.544;2022-10-28T03:11:39;7.63;;;3.65;;
17927;SDS011;9089;58.396;15.544;2022-10-28T03:14:05;6.63;;;3.38;;
17927;SDS011;9089;58.396;15.544;2022-10-28T03:16:30;8.27;;;3.70;;
17927;SDS011;9089;58.396;15.544;2022-10-28T03:18:56;13.25;;;4.03;;
17927;SDS011;9089;58.396;15.544;2022-10-28T03:21:21;13.32;;;4.22;;
17927;SDS011;9089;58.396;15.544;2022-10-28T03:23:46;12.93;;;4.05;;
17927;SDS011;9089;58.396;15.544;2022-10-28T03:26:12;19.42;;;4.25;;
17927;SDS011;9089;58.396;15.544;2022-10-28T03:28:39;10.52;;;3.92;;
17927;SDS011;9089;58.396;15.544;2022-10-28T03:31:04;11.57;;;3.72;;
17927;SDS011;9089;58.396;15.544;2022-10-28T03:33:30;5.03;;;2.97;;
17927;SDS011;9089;58.396;15.544;2022-10-28T03:35:55;8.52;;;3.42;;
17927;SDS011;9089;58.396;15.544;2022-10-28T03:38:20;11.60;;;4.05;;
17927;SDS011;9089;58.396;15.544;2022-10-28T03:40:46;9.77;;;4.30;;
17927;SDS011;9089;58.396;15.544;2022-10-28T03:43:11;12.07;;;4.55;;
17927;SDS011;9089;58.396;15.544;2022-10-28T03:45:38;13.75;;;4.82;;
17927;SDS011;9089;58.396;15.544;2022-10-28T03:48:04;10.63;;;3.85;;
17927;SDS011;9089;58.396;15.544;2022-10-28T03:50:29;12.10;;;4.18;;
17927;SDS011;9089;58.396;15.544;2022-10-28T03:52:54;14.75;;;4.50;;
17927;SDS011;9089;58.396;15.544;2022-10-28T03:55:20;12.45;;;4.45;;
17927;SDS011;9089;58.396;15.544;2022-10-28T03:57:48;12.73;;;4.45;;
17927;SDS011;9089;58.396;15.544;2022-10-28T04:00:14;9.98;;;4.03;;
17927;SDS011;9089;58.396;15.544;2022-10-28T04:02:41;10.07;;;4.32;;
17927;SDS011;9089;58.396;15.544;2022-10-28T04:05:06;10.40;;;4.25;;
17927;SDS011;9089;58.396;15.544;2022-10-28T04:07:32;10.73;;;4.47;;
17927;SDS011;9089;58.396;15.544;2022-10-28T04:09:57;10.13;;;4.35;;
17927;SDS011;9089;58.396;15.544;2022-10-28T04:12:23;9.85;;;4.07;;
17927;SDS011;9089;58.396;15.544;2022-10-28T04:14:48;10.82;;;4.32;;
17927;SDS011;9089;58.396;15.544;2022-10-28T04:17:14;9.82;;;4.65;;
17927;SDS011;9089;58.396;15.544;2022-10-28T04:19:41;17.27;;;4.97;;
17927;SDS011;9089;58.396;15.544;2022-10-28T04:22:06;16.48;;;5.75;;
17927;SDS011;9089;58.396;15.544;2022-10-28T04:24:33;11.30;;;4.75;;
17927;SDS011;9089;58.396;15.544;2022-10-28T04:26:58;8.93;;;4.60;;
17927;SDS011;9089;58.396;15.544;2022-10-28T04:29:24;6.60;;;5.07;;
17927;SDS011;9089;58.396;15.544;2022-10-28T04:31:49;10.75;;;4.68;;
17927;SDS011;9089;58.396;15.544;2022-10-28T04:34:14;9.18;;;4.45;;
17927;SDS011;9089;58.396;15.544;2022-10-28T04:36:41;11.75;;;5.10;;
17927;SDS011;9089;58.396;15.544;2022-10-28T04:39:07;13.07;;;4.85;;
17927;SDS011;9089;58.396;15.544;2022-10-28T04:41:33;14.35;;;5.47;;
17927;SDS011;9089;58.396;15.544;2022-10-28T04:43:59;8.98;;;4.75;;
17927;SDS011;9089;58.396;15.544;2022-10-28T04:46:24;13.77;;;5.50;;
17927;SDS011;9089;58.396;15.544;2022-10-28T04:48:50;10.15;;;4.93;;
17927;SDS011;9089;58.396;15.544;2022-10-28T04:51:15;16.15;;;6.15;;
17927;SDS011;9089;58.396;15.544;2022-10-28T04:53:42;10.77;;;5.45;;
17927;SDS011;9089;58.396;15.544;2022-10-28T04:56:07;7.03;;;4.32;;
17927;SDS011;9089;58.396;15.544;2022-10-28T04:58:33;10.38;;;5.03;;
17927;SDS011;9089;58.396;15.544;2022-10-28T05:00:58;11.07;;;5.85;;
17927;SDS011;9089;58.396;15.544;2022-10-28T05:03:28;12.13;;;5.93;;
17927;SDS011;9089;58.396;15.544;2022-10-28T05:05:54;16.77;;;5.97;;
17927;SDS011;9089;58.396;15.544;2022-10-28T05:08:19;14.02;;;5.65;;
17927;SDS011;9089;58.396;15.544;2022-10-28T05:10:46;14.55;;;6.25;;
17927;SDS011;9089;58.396;15.544;2022-10-28T05:13:14;11.57;;;6.47;;
17927;SDS011;9089;58.396;15.544;2022-10-28T05:15:39;11.98;;;6.40;;
17927;SDS011;9089;58.396;15.544;2022-10-28T05:18:05;14.48;;;6.68;;
17927;SDS011;9089;58.396;15.544;2022-10-28T05:20:30;15.48;;;6.28;;
17927;SDS011;9089;58.396;15.544;2022-10-28T05:22:56;11.55;;;6.45;;
17927;SDS011;9089;58.396;15.544;2022-10-28T05:25:21;11.00;;;6.60;;
17927;SDS011;9089;58.396;15.544;2022-10-28T05:27:49;14.07;;;7.03;;
17927;SDS011;9089;58.396;15.544;2022-10-28T05:30:15;15.27;;;7.90;;
17927;SDS011;9089;58.396;15.544;2022-10-28T05:32:40;12.90;;;6.50;;
17927;SDS011;9089;58.396;15.544;2022-10-28T05:35:06;15.50;;;7.05;;
17927;SDS011;9089;58.396;15.544;2022-10-28T05:37:31;15.05;;;7.57;;
17927;SDS011;9089;58.396;15.544;2022-10-28T05:39:57;10.60;;;6.00;;
17927;SDS011;9089;58.396;15.544;2022-10-28T05:42:22;11.43;;;6.25;;
17927;SDS011;9089;58.396;15.544;2022-10-28T05:44:49;10.57;;;6.38;;
17927;SDS011;9089;58.396;15.544;2022-10-28T05:47:15;15.82;;;6.57;;
17927;SDS011;9089;58.396;15.544;2022-10-28T05:49:40;16.45;;;6.88;;
17927;SDS011;9089;58.396;15.544;2022-10-28T05:52:06;12.68;;;5.85;;
17927;SDS011;9089;58.396;15.544;2022-10-28T05:54:31;16.02;;;6.63;;
17927;SDS011;9089;58.396;15.544;2022-10-28T05:56:56;11.43;;;6.53;;
17927;SDS011;9089;58.396;15.544;2022-10-28T05:59:22;17.75;;;7.55;;
17927;SDS011;9089;58.396;15.544;2022-10-28T06:01:49;8.23;;;5.05;;
17927;SDS011;9089;58.396;15.544;2022-10-28T06:04:14;14.40;;;6.05;;
17927;SDS011;9089;58.396;15.544;2022-10-28T06:06:40;14.10;;;6.53;;
17927;SDS011;9089;58.396;15.544;2022-10-28T06:09:05;10.95;;;6.20;;
17927;SDS011;9089;58.396;15.544;2022-10-28T06:11:31;9.65;;;5.05;;
17927;SDS011;9089;58.396;15.544;2022-10-28T06:13:56;10.23;;;5.18;;
17927;SDS011;9089;58.396;15.544;2022-10-28T06:16:22;8.73;;;4.88;;
17927;SDS011;9089;58.396;15.544;2022-10-28T06:18:48;14.27;;;5.95;;
17927;SDS011;9089;58.396;15.544;2022-10-28T06:21:14;10.52;;;5.32;;
17927;SDS011;9089;58.396;15.544;2022-10-28T06:23:39;11.70;;;5.13;;
17927;SDS011;9089;58.396;15.544;2022-10-28T06:26:05;15.85;;;5.97;;
17927;SDS011;9089;58.396;15.544;2022-10-28T06:28:30;15.23;;;6.45;;
17927;SDS011;9089;58.396;15.544;2022-10-28T06:31:00;11.55;;;5.00;;
17927;SDS011;9089;58.396;15.544;2022-10-28T06:33:25;9.65;;;5.18;;
17927;SDS011;9089;58.396;15.544;2022-10-28T06:35:56;7.93;;;4.63;;
17927;SDS011;9089;58.396;15.544;2022-10-28T06:38:22;8.98;;;5.50;;
17927;SDS011;9089;58.396;15.544;2022-10-28T06:40:47;9.98;;;5.40;;
17927;SDS011;9089;58.396;15.544;2022-10-28T06:43:13;12.50;;;5.65;;
17927;SDS011;9089;58.396;15.544;2022-10-28T06:45:39;11.82;;;6.03;;
17927;SDS011;9089;58.396;15.544;2022-10-28T06:48:05;8.40;;;5.05;;
17927;SDS011;9089;58.396;15.544;2022-10-28T06:50:31;12.07;;;5.45;;
17927;SDS011;9089;58.396;15.544;2022-10-28T06:52:58;9.48;;;5.43;;
17927;SDS011;9089;58.396;15.544;2022-10-28T06:55:23;11.25;;;5.45;;
17927;SDS011;9089;58.396;15.544;2022-10-28T06:57:49;11.55;;;4.80;;
17927;SDS011;9089;58.396;15.544;2022-10-28T07:00:15;12.93;;;4.45;;
17927;SDS011;9089;58.396;15.544;2022-10-28T07:02:40;11.80;;;4.45;;
17927;SDS011;9089;58.396;15.544;2022-10-28T07:05:06;8.85;;;4.85;;
17927;SDS011;9089;58.396;15.544;2022-10-28T07:07:32;11.02;;;4.80;;
17927;SDS011;9089;58.396;15.544;2022-10-28T07:09:58;9.43;;;4.82;;
17927;SDS011;9089;58.396;15.544;2022-10-28T07:12:24;7.50;;;4.70;;
17927;SDS011;9089;58.396;15.544;2022-10-28T07:14:49;13.82;;;5.60;;
17927;SDS011;9089;58.396;15.544;2022-10-28T07:17:15;11.05;;;5.47;;
17927;SDS011;9089;58.396;15.544;2022-10-28T07:19:40;6.88;;;5.30;;
17927;SDS011;9089;58.396;15.544;2022-10-28T07:22:05;9.68;;;5.55;;
17927;SDS011;9089;58.396;15.544;2022-10-28T07:24:31;9.82;;;5.55;;
17927;SDS011;9089;58.396;15.544;2022-10-28T07:26:58;7.60;;;5.57;;
17927;SDS011;9089;58.396;15.544;2022-10-28T07:29:23;7.50;;;5.63;;
17927;SDS011;9089;58.396;15.544;2022-10-28T07:31:52;10.00;;;5.85;;
17927;SDS011;9089;58.396;15.544;2022-10-28T07:34:17;11.45;;;5.95;;
17927;SDS011;9089;58.396;15.544;2022-10-28T07:36:47;10.32;;;6.00;;
17927;SDS011;9089;58.396;15.544;2022-10-28T07:39:13;12.30;;;6.32;;
17927;SDS011;9089;58.396;15.544;2022-10-28T07:41:39;11.63;;;6.13;;
17927;SDS011;9089;58.396;15.544;2022-10-28T07:44:05;10.10;;;6.32;;
17927;SDS011;9089;58.396;15.544;2022-10-28T07:46:32;12.00;;;5.95;;
17927;SDS011;9089;58.396;15.544;2022-10-28T07:48:57;10.25;;;6.18;;
17927;SDS011;9089;58.396;15.544;2022-10-28T07:51:23;9.80;;;5.93;;
17927;SDS011;9089;58.396;15.544;2022-10-28T07:53:48;8.05;;;6.30;;
17927;SDS011;9089;58.396;15.544;2022-10-28T07:56:13;8.45;;;5.72;;
17927;SDS011;9089;58.396;15.544;2022-10-28T07:58:39;9.52;;;6.38;;
17927;SDS011;9089;58.396;15.544;2022-10-28T08:01:07;10.13;;;7.05;;
17927;SDS011;9089;58.396;15.544;2022-10-28T08:03:33;8.88;;;6.28;;
17927;SDS011;9089;58.396;15.544;2022-10-28T08:05:59;12.82;;;6.25;;
17927;SDS011;9089;58.396;15.544;2022-10-28T08:08:24;8.48;;;5.93;;
17927;SDS011;9089;58.396;15.544;2022-10-28T08:10:50;7.63;;;5.70;;
17927;SDS011;9089;58.396;15.544;2022-10-28T08:13:15;7.43;;;5.57;;
17927;SDS011;9089;58.396;15.544;2022-10-28T08:15:41;8.75;;;6.32;;
17927;SDS011;9089;58.396;15.544;2022-10-28T08:18:07;12.75;;;6.85;;
17927;SDS011;9089;58.396;15.544;2022-10-28T08:20:33;7.85;;;6.10;;
17927;SDS011;9089;58.396;15.544;2022-10-28T08:22:58;6.82;;;6.18;;
17927;SDS011;9089;58.396;15.544;2022-10-28T08:25:24;8.95;;;6.80;;
17927;SDS011;9089;58.396;15.544;2022-10-28T08:27:49;8.98;;;6.55;;
17927;SDS011;9089;58.396;15.544;2022-10-28T08:30:15;9.23;;;7.32;;
17927;SDS011;9089;58.396;15.544;2022-10-28T08:32:40;9.35;;;7.63;;
17927;SDS011;9089;58.396;15.544;2022-10-28T08:35:07;10.07;;;6.88;;
17927;SDS011;9089;58.396;15.544;2022-10-28T08:37:33;9.77;;;7.75;;
17927;SDS011;9089;58.396;15.544;2022-10-28T08:39:59;11.40;;;8.18;;
17927;SDS011;9089;58.396;15.544;2022-10-28T08:42:27;9.63;;;7.53;;
17927;SDS011;9089;58.396;15.544;2022-10-28T08:44:59;10.00;;;8.18;;
17927;SDS011;9089;58.396;15.544;2022-10-28T08:47:33;10.50;;;8.63;;
17927;SDS011;9089;58.396;15.544;2022-10-28T08:50:03;13.63;;;8.57;;
17927;SDS011;9089;58.396;15.544;2022-10-28T08:52:31;12.57;;;8.05;;
17927;SDS011;9089;58.396;15.544;2022-10-28T08:54:59;13.40;;;8.95;;
17927;SDS011;9089;58.396;15.544;2022-10-28T08:57:28;11.82;;;8.82;;
17927;SDS011;9089;58.396;15.544;2022-10-28T08:59:56;14.93;;;10.32;;
17927;SDS011;9089;58.396;15.544;2022-10-28T09:02:25;15.68;;;11.00;;
17927;SDS011;9089;58.396;15.544;2022-10-28T09:04:52;17.55;;;11.48;;
17927;SDS011;9089;58.396;15.544;2022-10-28T09:07:20;16.65;;;11.38;;
17927;SDS011;9089;58.396;15.544;2022-10-28T09:09:48;18.80;;;11.43;;
17927;SDS011;9089;58.396;15.544;2022-10-28T09:12:20;18.30;;;11.65;;
17927;SDS011;9089;58.396;15.544;2022-10-28T09:14:56;15.63;;;11.77;;
17927;SDS011;9089;58.396;15.544;2022-10-28T09:17:25;16.40;;;12.10;;
17927;SDS011;9089;58.396;15.544;2022-10-28T09:19:55;17.00;;;11.32;;
17927;SDS011;9089;58.396;15.544;2022-10-28T09:22:25;18.40;;;12.15;;
17927;SDS011;9089;58.396;15.544;2022-10-28T09:24:53;16.88;;;12.48;;
17927;SDS011;9089;58.396;15.544;2022-10-28T09:27:31;16.52;;;11.60;;
17927;SDS011;9089;58.396;15.544;2022-10-28T09:30:02;17.35;;;12.05;;
17927;SDS011;9089;58.396;15.544;2022-10-28T09:32:33;16.40;;;11.70;;
17927;SDS011;9089;58.396;15.544;2022-10-28T09:35:03;18.67;;;11.63;;
17927;SDS011;9089;58.396;15.544;2022-10-28T09:37:31;18.65;;;12.73;;
17927;SDS011;9089;58.396;15.544;2022-10-28T09:40:02;17.27;;;12.63;;
17927;SDS011;9089;58.396;15.544;2022-10-28T09:42:30;18.98;;;12.93;;
17927;SDS011;9089;58.396;15.544;2022-10-28T09:44:57;20.05;;;11.98;;
17927;SDS011;9089;58.396;15.544;2022-10-28T09:47:26;15.32;;;11.95;;
17927;SDS011;9089;58.396;15.544;2022-10-28T09:49:54;18.10;;;12.38;;
17927;SDS011;9089;58.396;15.544;2022-10-28T09:52:21;16.67;;;12.23;;
17927;SDS011;9089;58.396;15.544;2022-10-28T09:54:48;19.35;;;12.57;;
17927;SDS011;9089;58.396;15.544;2022-10-28T09:57:16;13.73;;;11.68;;
17927;SDS011;9089;58.396;15.544;2022-10-28T09:59:41;18.23;;;12.32;;
17927;SDS011;9089;58.396;15.544;2022-10-28T10:02:07;17.38;;;12.80;;
17927;SDS011;9089;58.396;15.544;2022-10-28T10:04:47;17.60;;;12.57;;
17927;SDS011;9089;58.396;15.544;2022-10-28T10:07:12;17.83;;;11.88;;
17927;SDS011;9089;58.396;15.544;2022-10-28T10:09:41;18.25;;;12.90;;
17927;SDS011;9089;58.396;15.544;2022-10-28T10:12:08;19.73;;;12.25;;
17927;SDS011;9089;58.396;15.544;2022-10-28T10:14:36;15.50;;;12.85;;
17927;SDS011;9089;58.396;15.544;2022-10-28T10:17:03;17.58;;;12.43;;
17927;SDS011;9089;58.396;15.544;2022-10-28T10:19:39;15.75;;;11.77;;
17927;SDS011;9089;58.396;15.544;2022-10-28T10:22:27;15.60;;;12.07;;
17927;SDS011;9089;58.396;15.544;2022-10-28T10:24:53;17.88;;;12.73;;
17927;SDS011;9089;58.396;15.544;2022-10-28T10:27:18;18.13;;;12.50;;
17927;SDS011;9089;58.396;15.544;2022-10-28T10:29:46;15.55;;;13.05;;
17927;SDS011;9089;58.396;15.544;2022-10-28T10:32:14;14.38;;;12.60;;
17927;SDS011;9089;58.396;15.544;2022-10-28T10:34:42;14.68;;;11.77;;
17927;SDS011;9089;58.396;15.544;2022-10-28T10:37:12;13.75;;;10.77;;
17927;SDS011;9089;58.396;15.544;2022-10-28T10:39:40;15.38;;;11.18;;
17927;SDS011;9089;58.396;15.544;2022-10-28T10:42:13;13.02;;;10.63;;
17927;SDS011;9089;58.396;15.544;2022-10-28T10:44:39;12.70;;;10.43;;
17927;SDS011;9089;58.396;15.544;2022-10-28T10:47:19;14.52;;;10.43;;
17927;SDS011;9089;58.396;15.544;2022-10-28T10:49:44;13.23;;;10.15;;
17927;SDS011;9089;58.396;15.544;2022-10-28T10:52:14;13.60;;;10.77;;
17927;SDS011;9089;58.396;15.544;2022-10-28T10:54:44;11.30;;;9.27;;
17927;SDS011;9089;58.396;15.544;2022-10-28T10:57:14;12.45;;;10.43;;
17927;SDS011;9089;58.396;15.544;2022-10-28T10:59:40;11.25;;;9.65;;
17927;SDS011;9089;58.396;15.544;2022-10-28T11:02:18;13.43;;;10.23;;
17927;SDS011;9089;58.396;15.544;2022-10-28T11:04:48;11.63;;;9.48;;
17927;SDS011;9089;58.396;15.544;2022-10-28T11:07:15;10.85;;;8.65;;
17927;SDS011;9089;58.396;15.544;2022-10-28T11:09:40;13.00;;;9.30;;
17927;SDS011;9089;58.396;15.544;2022-10-28T11:12:15;11.13;;;9.00;;
17927;SDS011;9089;58.396;15.544;2022-10-28T11:14:52;11.85;;;9.60;;
17927;SDS011;9089;58.396;15.544;2022-10-28T11:17:20;10.27;;;9.13;;
17927;SDS011;9089;58.396;15.544;2022-10-28T11:19:49;12.82;;;9.60;;
17927;SDS011;9089;58.396;15.544;2022-10-28T11:22:18;11.73;;;9.48;;
17927;SDS011;9089;58.396;15.544;2022-10-28T11:24:50;13.07;;;9.52;;
17927;SDS011;9089;58.396;15.544;2022-10-28T11:27:23;13.32;;;9.52;;
17927;SDS011;9089;58.396;15.544;2022-10-28T11:29:50;11.90;;;9.23;;
17927;SDS011;9089;58.396;15.544;2022-10-28T11:32:18;9.95;;;8.23;;
17927;SDS011;9089;58.396;15.544;2022-10-28T11:34:51;9.50;;;8.18;;
17927;SDS011;9089;58.396;15.544;2022-10-28T11:37:23;11.57;;;8.63;;
17927;SDS011;9089;58.396;15.544;2022-10-28T11:39:55;8.68;;;7.20;;
17927;SDS011;9089;58.396;15.544;2022-10-28T11:42:27;10.13;;;8.50;;
17927;SDS011;9089;58.396;15.544;2022-10-28T11:44:54;8.68;;;7.82;;
17927;SDS011;9089;58.396;15.544;2022-10-28T11:47:33;7.60;;;6.90;;
17927;SDS011;9089;58.396;15.544;2022-10-28T11:52:48;8.30;;;7.50;;
17927;SDS011;9089;58.396;15.544;2022-10-28T11:55:20;7.82;;;7.00;;
17927;SDS011;9089;58.396;15.544;2022-10-28T11:57:49;7.35;;;6.60;;
17927;SDS011;9089;58.396;15.544;2022-10-28T12:00:24;7.15;;;6.55;;
17927;SDS011;9089;58.396;15.544;2022-10-28T12:02:56;7.63;;;6.47;;
17927;SDS011;9089;58.396;15.544;2022-10-28T12:05:26;6.85;;;6.15;;
17927;SDS011;9089;58.396;15.544;2022-10-28T12:08:00;6.15;;;5.55;;
17927;SDS011;9089;58.396;15.544;2022-10-28T12:10:35;7.75;;;5.97;;
17927;SDS011;9089;58.396;15.544;2022-10-28T12:13:05;6.28;;;5.40;;
17927;SDS011;9089;58.396;15.544;2022-10-28T12:15:33;5.28;;;4.88;;
17927;SDS011;9089;58.396;15.544;2022-10-28T12:18:01;5.22;;;4.40;;
17927;SDS011;9089;58.396;15.544;2022-10-28T12:20:29;4.68;;;4.25;;
17927;SDS011;9089;58.396;15.544;2022-10-28T12:22:56;4.93;;;3.22;;
17927;SDS011;9089;58.396;15.544;2022-10-28T12:25:25;3.00;;;2.75;;
17927;SDS011;9089;58.396;15.544;2022-10-28T12:27:53;2.78;;;2.30;;
17927;SDS011;9089;58.396;15.544;2022-10-28T12:30:20;4.65;;;2.47;;
17927;SDS011;9089;58.396;15.544;2022-10-28T12:32:48;3.92;;;2.35;;
17927;SDS011;9089;58.396;15.544;2022-10-28T12:35:16;3.05;;;2.40;;
17927;SDS011;9089;58.396;15.544;2022-10-28T12:37:44;2.95;;;2.10;;
17927;SDS011;9089;58.396;15.544;2022-10-28T12:40:12;2.25;;;2.15;;
17927;SDS011;9089;58.396;15.544;2022-10-28T12:42:41;2.30;;;1.92;;
17927;SDS011;9089;58.396;15.544;2022-10-28T12:45:10;2.95;;;1.83;;
17927;SDS011;9089;58.396;15.544;2022-10-28T12:47:37;2.10;;;1.90;;
17927;SDS011;9089;58.396;15.544;2022-10-28T12:50:08;3.05;;;2.40;;
17927;SDS011;9089;58.396;15.544;2022-10-28T12:52:39;2.75;;;2.53;;
17927;SDS011;9089;58.396;15.544;2022-10-28T12:55:09;3.13;;;2.30;;
17927;SDS011;9089;58.396;15.544;2022-10-28T12:57:39;3.40;;;1.77;;
17927;SDS011;9089;58.396;15.544;2022-10-28T13:00:12;1.75;;;1.60;;
17927;SDS011;9089;58.396;15.544;2022-10-28T13:02:42;1.75;;;1.63;;
17927;SDS011;9089;58.396;15.544;2022-10-28T13:05:14;3.85;;;1.83;;
17927;SDS011;9089;58.396;15.544;2022-10-28T13:07:46;1.42;;;1.30;;
17927;SDS011;9089;58.396;15.544;2022-10-28T13:10:17;1.42;;;1.17;;
17927;SDS011;9089;58.396;15.544;2022-10-28T13:15:50;2.78;;;1.63;;
17927;SDS011;9089;58.396;15.544;2022-10-28T13:21:14;2.40;;;1.25;;
17927;SDS011;9089;58.396;15.544;2022-10-28T13:23:43;2.40;;;1.38;;
17927;SDS011;9089;58.396;15.544;2022-10-28T13:26:14;1.60;;;1.20;;
17927;SDS011;9089;58.396;15.544;2022-10-28T13:28:42;1.33;;;1.20;;
17927;SDS011;9089;58.396;15.544;2022-10-28T13:31:10;1.80;;;1.20;;
17927;SDS011;9089;58.396;15.544;2022-10-28T13:33:36;3.05;;;1.27;;
17927;SDS011;9089;58.396;15.544;2022-10-28T13:36:09;1.20;;;1.10;;
17927;SDS011;9089;58.396;15.544;2022-10-28T13:38:39;1.83;;;1.20;;
17927;SDS011;9089;58.396;15.544;2022-10-28T13:41:09;2.20;;;1.10;;
17927;SDS011;9089;58.396;15.544;2022-10-28T13:51:48;1.20;;;1.10;;
17927;SDS011;9089;58.396;15.544;2022-10-28T13:54:24;3.55;;;1.08;;
17927;SDS011;9089;58.396;15.544;2022-10-28T13:56:50;1.63;;;1.10;;
17927;SDS011;9089;58.396;15.544;2022-10-28T13:59:18;1.17;;;1.00;;
17927;SDS011;9089;58.396;15.544;2022-10-28T14:04:29;3.08;;;1.15;;
17927;SDS011;9089;58.396;15.544;2022-10-28T14:07:00;2.38;;;1.10;;
17927;SDS011;9089;58.396;15.544;2022-10-28T14:09:26;2.85;;;1.10;;
17927;SDS011;9089;58.396;15.544;2022-10-28T14:12:02;3.38;;;1.65;;
17927;SDS011;9089;58.396;15.544;2022-10-28T14:14:28;2.08;;;1.40;;
17927;SDS011;9089;58.396;15.544;2022-10-28T14:16:53;1.90;;;1.70;;
17927;SDS011;9089;58.396;15.544;2022-10-28T14:19:20;1.95;;;1.42;;
17927;SDS011;9089;58.396;15.544;2022-10-28T14:21:49;2.78;;;1.50;;
17927;SDS011;9089;58.396;15.544;2022-10-28T14:29:44;2.63;;;1.20;;
17927;SDS011;9089;58.396;15.544;2022-10-28T14:34:55;1.35;;;1.08;;
17927;SDS011;9089;58.396;15.544;2022-10-28T14:37:30;1.00;;;0.95;;
17927;SDS011;9089;58.396;15.544;2022-10-28T14:40:05;1.60;;;1.02;;
17927;SDS011;9089;58.396;15.544;2022-10-28T14:42:38;2.83;;;1.15;;
17927;SDS011;9089;58.396;15.544;2022-10-28T14:45:11;0.70;;;0.70;;
17927;SDS011;9089;58.396;15.544;2022-10-28T14:47:48;1.52;;;0.60;;
17927;SDS011;9089;58.396;15.544;2022-10-28T14:50:18;0.77;;;0.77;;
17927;SDS011;9089;58.396;15.544;2022-10-28T14:52:45;1.05;;;0.80;;
17927;SDS011;9089;58.396;15.544;2022-10-28T14:55:18;1.35;;;1.00;;
17927;SDS011;9089;58.396;15.544;2022-10-28T14:57:44;1.48;;;1.10;;
17927;SDS011;9089;58.396;15.544;2022-10-28T15:00:15;1.63;;;1.00;;
17927;SDS011;9089;58.396;15.544;2022-10-28T15:02:41;3.38;;;1.00;;
17927;SDS011;9089;58.396;15.544;2022-10-28T15:05:12;0.80;;;0.80;;
17927;SDS011;9089;58.396;15.544;2022-10-28T15:07:38;1.20;;;1.10;;
17927;SDS011;9089;58.396;15.544;2022-10-28T15:10:11;0.90;;;0.90;;
17927;SDS011;9089;58.396;15.544;2022-10-28T15:12:37;1.25;;;1.15;;